Fukuoka Airport
RJFF : now visible

Airfield :











YOU CAN JOIN US ON...

 
LOGIN :

Register | Disclaimer

   EN    FR    IT 

 









Legend :    VFR   Marginal VFR   IFR   Intensive IFR   Very Intensive IFR
Visi :
Ceiling :
>= 8 km
>= 3000ft
5 to 8 km
1000 to 3000 ft
1500m to 5 km
500 to 1000 ft
800 to 1500m
200 to 500 ft
< 800m
< 200 ft
Symbols :   Thunderstorms  Fog  Heavy snow  Heavy precipitations  Wind > 20 kt






- Airport Elevation : 32 ft
- IATA code : FUK


RJFF - Fukuoka

CURRENT METAR :
  • 261430Z AUTO 14019KT 7000 RA FEW007 SCT070 BKN080 //////TCU 21/20 Q1004 TEMPO 3000 TSRA BR RMK A2967 RI004 TCU 10KM SE-SW MOV NE

EXPIRED METARs :
  • 261417Z AUTO 14017G27KT 8000 -RA FEW008 SCT070 BKN080 //////TCU 21/20 Q1004 RMK A2967 TCU 10KM SE-SW MOV E
  • 261400Z AUTO 14017KT 9999 -RA FEW009 BKN070 BKN100 //////TCU 21/20 Q1005 TEMPO 3000 TSRA BR
  • 261346Z 14017G27KT 8000 -RA FEW010 SCT080 BKN100 21/20 Q1005 RMK 1ST010 3AC080 5AC100 A2969
  • 261330Z 15011KT 7000 -RA FEW010 SCT060 BKN100 21/21 Q1006 TEMPO 3000 TSRA BR RMK 1ST010 3SC060 5AC100 A2972
  • 261318Z 14012KT 7000 RA FEW010 SCT050 BKN080 21/21 Q1006 RMK 1ST010 3SC050 5AC080 A2972
  • 261300Z 13010KT 4500 SHRA BR FEW008 SCT020 BKN070 21/20 Q1006 TEMPO 3000 TSRA BR
  • 261230Z 15015KT 4000 SHRA BR FEW010 SCT020 BKN040 21/20 Q1007 TEMPO 3000 TSRA BR RMK 1ST010 3CU020 5CU040 A2975
  • 261205Z 16011KT 140V210 3000 +SHRA BR FEW010 SCT020 BKN040 22/21 Q1007 RMK 1ST010 3CU020 6CU040 A2976
  • 261200Z 15012KT 4500 SHRA BR FEW010 SCT020 BKN040 22/21 Q1007 TEMPO 3000 SHRA BR RMK 1ST010 3CU020 6CU040 A2975
  • 261130Z 15012KT 6000 RA FEW010 SCT050 BKN080 22/21 Q1007 TEMPO 3000 SHRA BR
  • 261100Z 16016KT 6000 RA FEW010 SCT060 BKN080 22/21 Q1007 TEMPO 3000 SHRA BR
  • 261030Z 16017KT 6000 RA FEW020 SCT060 BKN100 23/21 Q1007 TEMPO 3000 SHRA BR RMK 1CU020 4SC060 7AC100 A2975
  • 261000Z 16013KT 9999 -RA FEW025 SCT060 BKN120 25/21 Q1007 TEMPO 3000 SHRA BR

TAF TAF RJFF
Valid from the 26 at 12:00 until the 27 at 18:00 UTC


261106Z 2612/2718 16015KT 7000 -SHRA FEW008 SCT010 BKN015
TEMPO 2612/2614 3000 SHRA BR
TEMPO 2614/2618 3000 TSRA BR FEW008 SCT010 BKN015 FEW020CB
TEMPO 2618/2703 4000 -SHRA BR FEW005 BKN008 BKN010
BECMG 2700/2703 31011KT
BECMG 2712/2715 14003KT
RJJJ FIR / Asia



MET'MAP, your aeronautical weather chart ! - Copyright ORBIFLY December 2007 - Disclaimer

ORBIFLY MET'MAP TEAM :

Programming & Development : Alexandra Zaïnal
Original concept : Baudouin d'Aumeries
Technical & hardware support : Manuel Goepfert
Assistance : Marc-Olivier Méhu




SOURCES & CREDITS :

   NOAA       Earth
Advisory